Time;durP1;ratioP1;P1;durP2;ratioP2;P2;SDS_P1;SDS_P2;PMS_P1;PMS_P2;Temp;Humidity;BMP_temperature;BMP_pressure;BME280_temperature;BME280_humidity;BME280_pressure;Samples;Min_cycle;Max_cycle;Signal;HPM_P1;HPM_P2
2022/10/09 00:01:09;;;;;;;2.78;2.28;;;10.60;58.60;;;;;;4798746;29;20042;-51
2022/10/09 00:03:37;;;;;;;4.05;2.83;;;10.50;58.60;;;;;;4803150;29;20054;-46
2022/10/09 00:06:05;;;;;;;5.28;2.63;;;10.50;58.60;;;;;;4803496;29;20051;-50
2022/10/09 00:08:34;;;;;;;7.65;2.83;;;10.50;58.60;;;;;;4803696;29;20051;-48
2022/10/09 00:11:08;;;;;;;6.30;3.08;;;10.50;58.60;;;;;;4796774;29;20058;-46
2022/10/09 00:13:38;;;;;;;4.60;2.40;;;10.50;58.80;;;;;;4796177;29;20043;-51
2022/10/09 00:16:08;;;;;;;4.63;2.88;;;10.40;58.60;;;;;;4806074;29;20038;-50
2022/10/09 00:18:35;;;;;;;7.47;2.63;;;10.40;58.70;;;;;;4813940;29;20050;-49
2022/10/09 00:21:05;;;;;;;4.60;2.65;;;10.40;58.60;;;;;;4799868;29;20504;-46
2022/10/09 00:23:32;;;;;;;6.10;2.50;;;10.40;58.60;;;;;;4802983;29;20051;-46
2022/10/09 00:26:00;;;;;;;2.53;2.28;;;10.40;58.70;;;;;;4803467;29;20089;-48
2022/10/09 00:28:30;;;;;;;2.53;2.20;;;10.30;58.70;;;;;;4798480;29;20469;-51
2022/10/09 00:31:11;;;;;;;3.00;2.05;;;10.30;58.90;;;;;;4800333;29;20039;-49
2022/10/09 00:33:38;;;;;;;6.00;2.08;;;10.30;59.00;;;;;;4803434;29;20556;-48
2022/10/09 00:36:10;;;;;;;2.97;1.80;;;10.30;58.70;;;;;;4803383;29;20048;-47
2022/10/09 00:38:37;;;;;;;3.13;2.10;;;10.20;58.70;;;;;;4799807;29;20051;-46
2022/10/09 00:41:05;;;;;;;3.67;1.90;;;10.20;58.70;;;;;;4803334;29;20047;-51
2022/10/09 00:43:43;;;;;;;5.97;2.63;;;10.20;58.70;;;;;;4802792;29;20058;-51
2022/10/09 00:46:20;;;;;;;2.17;1.83;;;10.20;59.10;;;;;;4797568;29;20059;-50
2022/10/09 00:48:59;;;;;;;3.45;2.03;;;10.10;58.90;;;;;;4797343;29;20043;-47
2022/10/09 00:51:28;;;;;;;3.72;1.88;;;10.10;58.80;;;;;;4801711;29;20121;-46
2022/10/09 00:53:55;;;;;;;2.33;2.17;;;10.10;58.70;;;;;;4803022;29;20042;-48
2022/10/09 00:56:24;;;;;;;3.42;2.28;;;10.10;58.70;;;;;;4802352;29;20130;-47
2022/10/09 00:58:53;;;;;;;4.65;2.55;;;10.00;58.70;;;;;;4799599;29;20046;-47
2022/10/09 01:01:20;;;;;;;4.15;2.88;;;10.00;58.80;;;;;;4804340;29;20096;-49
2022/10/09 01:03:47;;;;;;;3.40;2.55;;;10.00;58.70;;;;;;4806513;29;20107;-48
2022/10/09 01:06:16;;;;;;;4.15;2.83;;;9.90;58.70;;;;;;4799600;29;20051;-51
2022/10/09 01:09:03;;;;;;;3.50;3.17;;;9.90;58.70;;;;;;4806347;29;20035;-51
2022/10/09 01:11:56;;;;;;;3.42;3.10;;;9.90;59.10;;;;;;4806742;29;20043;-47
2022/10/09 01:14:38;;;;;;;4.45;2.85;;;9.90;59.30;;;;;;4805956;29;20118;-46
2022/10/09 01:17:10;;;;;;;6.03;3.88;;;9.90;59.20;;;;;;4804840;29;20075;-47
2022/10/09 01:19:49;;;;;;;;;;;9.80;58.90;;;;;;4806170;29;20046;-51
2022/10/09 01:22:24;;;;;;;5.38;4.05;;;9.90;59.20;;;;;;4806505;29;20036;-48
2022/10/09 01:25:06;;;;;;;7.20;4.05;;;9.80;58.80;;;;;;4802565;29;20119;-48
2022/10/09 01:27:34;;;;;;;5.25;4.63;;;9.80;59.20;;;;;;4805438;29;20047;-50
2022/10/09 01:30:06;;;;;;;5.25;4.22;;;9.80;58.80;;;;;;4805955;29;20066;-51
2022/10/09 01:32:47;;;;;;;5.53;3.83;;;9.70;59.00;;;;;;4806067;29;20042;-48
2022/10/09 01:35:16;;;;;;;7.20;4.63;;;9.70;59.30;;;;;;4803283;29;20063;-51
2022/10/09 01:37:45;;;;;;;3.83;3.50;;;9.70;58.90;;;;;;4805928;29;20817;-48
2022/10/09 01:40:14;;;;;;;7.10;3.60;;;9.70;59.00;;;;;;4805929;29;20043;-51
2022/10/09 01:42:42;;;;;;;6.68;3.40;;;9.60;58.90;;;;;;4805426;29;20057;-49
2022/10/09 01:45:09;;;;;;;5.05;4.03;;;9.60;59.00;;;;;;4800263;29;20055;-51
2022/10/09 01:47:36;;;;;;;12.15;4.15;;;9.60;58.90;;;;;;4805904;29;20051;-47
2022/10/09 01:50:32;;;;;;;6.07;4.07;;;9.60;59.10;;;;;;4805941;29;20050;-49
2022/10/09 01:53:02;;;;;;;5.40;3.83;;;9.60;59.80;;;;;;4799334;29;20058;-48
2022/10/09 01:56:03;;;;;;;4.63;3.70;;;9.60;59.10;;;;;;4805883;29;20038;-46
2022/10/09 01:58:38;;;;;;;5.68;3.42;;;9.50;59.80;;;;;;4805113;29;20054;-49
2022/10/09 02:01:15;;;;;;;4.47;3.50;;;9.50;59.10;;;;;;4801802;29;20119;-51
2022/10/09 02:03:48;;;;;;;7.15;3.88;;;9.50;59.10;;;;;;4796907;29;20827;-50
2022/10/09 02:06:16;;;;;;;4.85;3.70;;;9.50;59.10;;;;;;4805782;29;20047;-48
2022/10/09 02:08:46;;;;;;;6.95;3.67;;;9.40;59.20;;;;;;4805627;29;20058;-51
2022/10/09 02:11:14;;;;;;;5.47;3.95;;;9.40;59.20;;;;;;4802160;29;20043;-48
2022/10/09 02:13:42;;;;;;;7.03;3.53;;;9.40;59.20;;;;;;4803592;29;20058;-51
2022/10/09 02:16:38;;;;;;;4.80;3.88;;;9.40;59.20;;;;;;4807911;29;20046;-51
2022/10/09 02:19:12;;;;;;;3.53;3.22;;;9.40;59.60;;;;;;4814733;29;20050;-51
2022/10/09 02:21:43;;;;;;;3.22;2.92;;;9.40;59.40;;;;;;4797110;29;20416;-47
2022/10/09 02:24:19;;;;;;;5.75;3.58;;;9.30;59.30;;;;;;4802302;29;20053;-48
2022/10/09 02:26:45;;;;;;;3.53;3.05;;;9.30;59.40;;;;;;4805525;29;20047;-48
2022/10/09 02:29:15;;;;;;;4.80;3.63;;;9.30;59.30;;;;;;4799412;29;20047;-51
2022/10/09 02:31:43;;;;;;;5.00;3.35;;;9.30;59.30;;;;;;4805270;29;20047;-51
2022/10/09 02:34:14;;;;;;;6.82;3.70;;;9.30;59.40;;;;;;4804587;29;20393;-47
2022/10/09 02:36:41;;;;;;;3.73;2.70;;;9.20;59.50;;;;;;4805360;29;20057;-51
2022/10/09 02:39:08;;;;;;;5.53;3.88;;;9.20;59.50;;;;;;4802140;29;20718;-51
2022/10/09 02:41:35;;;;;;;5.40;3.10;;;9.20;59.50;;;;;;4799553;29;20053;-47
2022/10/09 02:44:03;;;;;;;5.10;3.33;;;9.20;59.50;;;;;;4804981;29;20115;-48
2022/10/09 02:46:29;;;;;;;4.88;4.22;;;9.20;59.60;;;;;;4805156;29;20058;-51
2022/10/09 02:48:56;;;;;;;5.28;3.63;;;9.20;59.60;;;;;;4800952;29;20134;-47
2022/10/09 02:51:24;;;;;;;3.22;2.85;;;9.20;59.60;;;;;;4803483;29;20047;-51
2022/10/09 02:53:52;;;;;;;5.70;3.42;;;9.10;59.60;;;;;;4804480;29;20046;-51
2022/10/09 02:56:22;;;;;;;3.72;3.03;;;9.10;59.60;;;;;;4802981;29;20484;-48
2022/10/09 02:58:51;;;;;;;3.45;3.15;;;9.10;59.50;;;;;;4797718;29;20055;-47
2022/10/09 03:01:21;;;;;;;5.40;3.58;;;9.10;59.60;;;;;;4800919;29;20043;-47
2022/10/09 03:03:51;;;;;;;4.00;3.53;;;9.10;59.70;;;;;;4804370;29;20042;-51
2022/10/09 03:06:26;;;;;;;4.75;3.35;;;9.10;59.70;;;;;;4802590;29;20049;-47
2022/10/09 03:08:53;;;;;;;5.05;3.15;;;9.10;59.90;;;;;;4801046;29;20046;-47
2022/10/09 03:11:22;;;;;;;4.25;3.05;;;9.00;59.60;;;;;;4804316;29;20058;-51
2022/10/09 03:13:49;;;;;;;3.53;3.22;;;9.00;59.70;;;;;;4802794;29;20162;-51
2022/10/09 03:16:19;;;;;;;5.63;2.90;;;9.00;59.80;;;;;;4802964;29;20043;-47
2022/10/09 03:18:47;;;;;;;4.80;3.17;;;9.00;60.00;;;;;;4798918;29;20045;-51
2022/10/09 03:21:16;;;;;;;3.58;3.28;;;9.00;60.10;;;;;;4804522;29;20047;-47
2022/10/09 03:23:43;;;;;;;6.75;3.60;;;9.00;60.30;;;;;;4803824;29;20055;-49
2022/10/09 03:26:16;;;;;;;4.35;3.00;;;9.00;60.30;;;;;;4801995;29;20171;-50
2022/10/09 03:28:48;;;;;;;4.15;3.00;;;9.00;60.50;;;;;;4804170;29;20049;-48
2022/10/09 03:31:16;;;;;;;3.63;3.28;;;9.00;60.50;;;;;;4804275;29;20473;-47
2022/10/09 03:34:03;;;;;;;3.75;3.15;;;9.00;60.50;;;;;;4803778;29;20129;-51
2022/10/09 03:36:29;;;;;;;7.47;3.30;;;9.00;60.60;;;;;;4795662;29;20050;-50
2022/10/09 03:38:56;;;;;;;4.75;3.80;;;9.00;60.90;;;;;;4799137;29;20061;-50
2022/10/09 03:41:23;;;;;;;6.53;4.15;;;9.00;61.20;;;;;;4804201;29;20569;-47
2022/10/09 03:43:49;;;;;;;6.32;4.03;;;9.00;61.30;;;;;;4801208;29;20062;-51
2022/10/09 03:46:16;;;;;;;5.55;3.97;;;9.00;61.50;;;;;;4801657;29;20047;-48
2022/10/09 03:48:43;;;;;;;4.72;4.25;;;9.00;61.70;;;;;;4803419;29;20062;-49
2022/10/09 03:51:09;;;;;;;4.93;3.22;;;9.10;61.70;;;;;;4803939;29;20055;-48
2022/10/09 03:53:36;;;;;;;5.53;3.80;;;9.10;61.60;;;;;;4799262;29;20857;-48
2022/10/09 03:56:03;;;;;;;7.93;3.90;;;9.10;61.60;;;;;;4798213;29;20045;-47
2022/10/09 03:58:29;;;;;;;5.45;4.28;;;9.10;61.70;;;;;;4803712;29;20051;-46
2022/10/09 04:00:59;;;;;;;7.47;3.72;;;9.10;61.80;;;;;;4803698;29;20046;-47
2022/10/09 04:03:36;;;;;;;6.80;3.92;;;9.10;61.90;;;;;;4803141;29;20078;-47
2022/10/09 04:06:02;;;;;;;4.45;3.63;;;9.10;61.70;;;;;;4800369;29;20050;-47
2022/10/09 04:08:29;;;;;;;6.70;4.20;;;9.10;61.40;;;;;;4802535;29;20047;-51
2022/10/09 04:10:57;;;;;;;4.80;3.78;;;9.10;61.40;;;;;;4803964;29;20497;-50
2022/10/09 04:13:24;;;;;;;4.10;3.70;;;9.10;61.40;;;;;;4799323;29;20103;-49
2022/10/09 04:15:52;;;;;;;4.35;3.60;;;9.10;61.40;;;;;;4801477;29;20042;-51
2022/10/09 04:18:19;;;;;;;5.35;3.80;;;9.10;61.50;;;;;;4804247;29;20038;-48
2022/10/09 04:20:50;;;;;;;5.97;3.53;;;9.10;61.50;;;;;;4821887;29;20046;-48
2022/10/09 04:23:21;;;;;;;8.15;4.15;;;9.10;61.70;;;;;;4805189;29;20047;-47
2022/10/09 04:25:58;;;;;;;6.63;3.53;;;9.10;61.40;;;;;;4803259;29;20075;-50
2022/10/09 04:28:29;;;;;;;4.32;3.70;;;9.10;61.70;;;;;;4803397;29;20528;-50
2022/10/09 04:30:58;;;;;;;4.57;3.63;;;9.10;61.70;;;;;;4803629;29;20699;-51
2022/10/09 04:33:25;;;;;;;6.13;4.10;;;9.00;61.50;;;;;;4795599;29;20058;-50
2022/10/09 04:35:56;;;;;;;4.95;4.45;;;9.00;61.40;;;;;;4804873;29;20039;-47
2022/10/09 04:38:23;;;;;;;7.25;4.45;;;9.00;61.50;;;;;;4806618;29;20053;-50
2022/10/09 04:41:02;;;;;;;6.45;4.03;;;9.00;61.40;;;;;;4811159;29;20054;-51
2022/10/09 04:43:32;;;;;;;4.47;4.07;;;9.00;61.90;;;;;;4802738;29;20412;-47
2022/10/09 04:46:06;;;;;;;4.80;4.03;;;9.00;61.40;;;;;;4805778;29;20054;-47
2022/10/09 04:48:44;;;;;;;5.97;3.53;;;9.00;61.60;;;;;;4806995;29;20135;-49
2022/10/09 04:51:15;;;;;;;4.88;4.03;;;9.00;61.50;;;;;;4797315;29;20109;-49
2022/10/09 04:53:42;;;;;;;7.13;3.72;;;8.90;61.80;;;;;;4806568;29;20054;-51
2022/10/09 04:56:18;;;;;;;6.97;3.63;;;8.90;61.00;;;;;;4806985;29;20061;-47
2022/10/09 04:58:46;;;;;;;6.35;3.63;;;8.90;61.20;;;;;;4806844;29;20051;-49
2022/10/09 05:01:17;;;;;;;3.85;3.47;;;8.90;60.90;;;;;;4801283;29;20057;-48
2022/10/09 05:03:43;;;;;;;4.25;3.88;;;8.80;61.00;;;;;;4806216;29;20113;-50
2022/10/09 05:06:14;;;;;;;4.18;3.78;;;8.80;61.00;;;;;;4806594;29;20047;-50
2022/10/09 05:08:41;;;;;;;4.10;3.33;;;8.80;61.00;;;;;;4803761;29;20130;-51
2022/10/09 05:11:23;;;;;;;4.70;3.92;;;8.80;61.60;;;;;;4804040;29;20050;-51
2022/10/09 05:13:55;;;;;;;4.43;3.30;;;8.80;61.20;;;;;;4805257;29;20512;-50
2022/10/09 05:16:25;;;;;;;3.30;3.00;;;8.70;60.80;;;;;;4809399;29;20473;-51
2022/10/09 05:18:55;;;;;;;4.65;3.67;;;8.70;60.80;;;;;;4805691;29;20074;-51
2022/10/09 05:21:23;;;;;;;5.20;3.70;;;8.70;60.90;;;;;;4806057;29;20043;-50
2022/10/09 05:23:51;;;;;;;3.97;3.60;;;8.70;60.90;;;;;;4805284;29;20078;-48
2022/10/09 05:26:23;;;;;;;4.13;3.72;;;8.60;60.90;;;;;;4806443;29;20470;-47
2022/10/09 05:28:55;;;;;;;5.03;3.60;;;8.60;61.10;;;;;;4799138;29;20050;-49
2022/10/09 05:31:28;;;;;;;4.00;3.20;;;8.60;60.90;;;;;;4805984;29;20504;-50
2022/10/09 05:33:58;;;;;;;6.20;4.18;;;8.60;61.10;;;;;;4806079;29;20108;-47
2022/10/09 05:36:25;;;;;;;5.10;4.07;;;8.60;61.00;;;;;;4805378;29;20054;-47
2022/10/09 05:38:52;;;;;;;4.50;3.45;;;8.60;61.00;;;;;;4803559;29;20053;-47
2022/10/09 05:41:19;;;;;;;6.72;3.85;;;8.50;61.00;;;;;;4802190;29;20051;-52
2022/10/09 05:43:47;;;;;;;6.32;4.40;;;8.50;61.00;;;;;;4807350;29;20121;-48
2022/10/09 05:46:15;;;;;;;6.65;4.47;;;8.50;61.10;;;;;;4806312;29;20051;-47
2022/10/09 05:48:45;;;;;;;6.38;4.20;;;8.50;61.10;;;;;;4797912;29;20532;-50
2022/10/09 05:51:19;;;;;;;6.47;4.13;;;8.50;61.20;;;;;;4806826;29;20104;-51
2022/10/09 05:53:47;;;;;;;4.93;3.85;;;8.40;61.30;;;;;;4805970;29;20122;-49
2022/10/09 05:56:23;;;;;;;4.90;4.00;;;8.40;61.10;;;;;;4815415;29;20041;-52
2022/10/09 05:58:54;;;;;;;5.25;3.80;;;8.40;61.30;;;;;;4802462;29;20107;-53
2022/10/09 06:01:24;;;;;;;6.40;4.13;;;8.40;61.20;;;;;;4811185;29;20043;-51
2022/10/09 06:03:56;;;;;;;4.72;3.97;;;8.40;61.30;;;;;;4804068;29;20050;-48
2022/10/09 06:06:24;;;;;;;;;;;8.40;61.50;;;;;;4810031;29;20063;-52
2022/10/09 06:08:53;;;;;;;6.30;4.00;;;8.40;61.70;;;;;;4805911;29;19928;-51
2022/10/09 06:11:27;;;;;;;8.40;4.38;;;8.40;61.00;;;;;;4802096;29;20047;-48
2022/10/09 06:13:55;;;;;;;6.43;3.90;;;8.40;61.90;;;;;;4803520;29;20133;-53
2022/10/09 06:16:27;;;;;;;15.70;4.22;;;8.40;61.40;;;;;;4800281;29;20050;-50
2022/10/09 06:18:54;;;;;;;10.63;4.68;;;8.40;61.60;;;;;;4799774;29;20051;-52
2022/10/09 06:21:21;;;;;;;7.20;4.30;;;8.40;61.60;;;;;;4810313;29;20050;-52
2022/10/09 06:23:52;;;;;;;6.18;5.00;;;8.40;61.70;;;;;;4802650;29;20050;-52
2022/10/09 06:26:20;;;;;;;8.40;4.65;;;8.40;61.90;;;;;;4797784;29;20043;-52
2022/10/09 06:28:49;;;;;;;8.30;4.70;;;8.40;61.90;;;;;;4797599;29;20121;-52
2022/10/09 06:31:21;;;;;;;8.45;5.18;;;8.40;62.00;;;;;;4803694;29;20132;-50
2022/10/09 06:33:52;;;;;;;6.32;4.72;;;8.40;62.00;;;;;;4810568;29;20083;-51
2022/10/09 06:36:30;;;;;;;8.35;4.70;;;8.40;62.10;;;;;;4803885;29;20412;-51
2022/10/09 06:39:01;;;;;;;7.40;5.40;;;8.40;62.30;;;;;;4803692;29;20054;-48
2022/10/09 06:41:29;;;;;;;8.15;4.75;;;8.50;62.40;;;;;;4802310;29;20062;-48
2022/10/09 06:44:12;;;;;;;5.53;4.97;;;8.50;62.20;;;;;;4793402;29;20050;-52
2022/10/09 06:46:44;;;;;;;7.03;5.05;;;8.50;62.20;;;;;;4790311;29;20050;-52
2022/10/09 06:49:11;;;;;;;7.22;4.95;;;8.50;62.30;;;;;;4800667;29;20058;-52
2022/10/09 06:51:40;;;;;;;9.52;5.13;;;8.50;62.40;;;;;;4805171;29;20126;-53
2022/10/09 06:54:12;;;;;;;8.95;5.03;;;8.60;62.50;;;;;;4809148;29;20043;-52
2022/10/09 06:56:39;;;;;;;11.60;4.47;;;8.60;62.90;;;;;;4801171;29;20043;-52
2022/10/09 06:59:06;;;;;;;9.85;4.80;;;8.60;62.70;;;;;;4802179;29;20064;-53
2022/10/09 07:01:34;;;;;;;9.90;5.10;;;8.60;62.80;;;;;;4802579;29;20054;-52
2022/10/09 07:04:02;;;;;;;7.93;4.60;;;8.70;63.00;;;;;;4802571;29;20142;-51
2022/10/09 07:06:30;;;;;;;7.70;4.65;;;8.70;63.20;;;;;;4802940;29;20700;-51
2022/10/09 07:09:00;;;;;;;11.32;5.25;;;8.70;63.20;;;;;;4789623;29;20623;-52
2022/10/09 07:11:36;;;;;;;8.90;4.93;;;8.80;63.40;;;;;;4794899;29;20511;-53
2022/10/09 07:14:05;;;;;;;6.35;5.30;;;8.80;63.80;;;;;;4815945;29;20079;-53
2022/10/09 07:16:38;;;;;;;6.10;5.13;;;8.90;63.80;;;;;;4803094;29;20035;-52
2022/10/09 07:19:07;;;;;;;8.00;5.38;;;8.90;64.00;;;;;;4801147;29;20063;-52
2022/10/09 07:21:34;;;;;;;8.23;5.30;;;9.00;64.10;;;;;;4800910;29;20512;-51
2022/10/09 07:24:02;;;;;;;11.48;5.53;;;9.00;64.40;;;;;;4803218;29;20065;-52
2022/10/09 07:26:31;;;;;;;9.35;5.10;;;9.10;64.80;;;;;;4798146;29;20504;-52
2022/10/09 07:29:00;;;;;;;6.13;5.05;;;9.10;65.00;;;;;;4802086;29;20125;-52
2022/10/09 07:31:26;;;;;;;8.52;4.88;;;9.20;65.20;;;;;;4800330;29;20051;-52
2022/10/09 07:33:55;;;;;;;9.57;5.55;;;9.20;65.30;;;;;;4814832;29;20779;-53
2022/10/09 07:36:22;;;;;;;6.47;5.18;;;9.30;65.50;;;;;;4810826;29;20053;-52
2022/10/09 07:38:51;;;;;;;11.32;6.20;;;9.40;65.60;;;;;;4801318;29;20453;-51
2022/10/09 07:41:18;;;;;;;8.15;5.25;;;9.40;65.70;;;;;;4796229;29;20141;-52
2022/10/09 07:43:45;;;;;;;6.50;5.40;;;9.50;65.80;;;;;;4802991;29;20050;-52
2022/10/09 07:46:14;;;;;;;7.95;4.57;;;9.50;65.90;;;;;;4812273;29;20054;-51
2022/10/09 07:48:41;;;;;;;7.30;5.40;;;9.60;66.20;;;;;;4821963;29;20046;-53
2022/10/09 07:51:10;;;;;;;7.43;4.78;;;9.70;66.40;;;;;;4801991;29;20043;-52
2022/10/09 07:53:39;;;;;;;8.82;4.90;;;9.80;66.70;;;;;;4810060;29;20039;-53
2022/10/09 07:56:11;;;;;;;10.77;5.70;;;9.80;66.50;;;;;;4804177;29;20081;-48
2022/10/09 07:58:41;;;;;;;8.63;5.18;;;9.90;66.70;;;;;;4798015;29;20039;-52
2022/10/09 08:01:09;;;;;;;6.72;4.95;;;10.00;67.00;;;;;;4799439;29;20066;-52
2022/10/09 08:03:37;;;;;;;9.68;5.75;;;10.00;67.00;;;;;;4803052;29;20047;-51
2022/10/09 08:06:03;;;;;;;8.00;5.65;;;10.10;67.10;;;;;;4802876;29;20054;-52
2022/10/09 08:08:30;;;;;;;6.38;5.05;;;10.20;67.20;;;;;;4800017;29;20055;-53
2022/10/09 08:10:57;;;;;;;9.07;4.78;;;10.20;67.40;;;;;;4802579;29;20051;-51
2022/10/09 08:13:24;;;;;;;6.82;4.95;;;10.30;67.60;;;;;;4802768;29;20054;-50
2022/10/09 08:15:51;;;;;;;8.13;4.93;;;10.30;67.50;;;;;;4803189;29;20125;-52
2022/10/09 08:18:18;;;;;;;7.55;5.65;;;10.40;67.60;;;;;;4802007;29;20088;-53
2022/10/09 08:20:54;;;;;;;6.53;5.60;;;10.50;67.90;;;;;;4802995;29;20504;-52
2022/10/09 08:23:21;;;;;;;7.22;4.88;;;10.60;68.10;;;;;;4802465;29;20051;-49
2022/10/09 08:25:48;;;;;;;8.57;4.78;;;10.60;68.10;;;;;;4804125;29;20453;-52
2022/10/09 08:28:15;;;;;;;7.63;4.72;;;10.70;68.40;;;;;;4799027;29;20046;-53
2022/10/09 08:30:42;;;;;;;6.80;5.40;;;10.80;68.50;;;;;;4802180;29;20114;-52
2022/10/09 08:33:08;;;;;;;8.07;5.00;;;10.80;68.30;;;;;;4802015;29;20114;-53
2022/10/09 08:35:35;;;;;;;8.80;5.22;;;10.90;68.40;;;;;;4802132;29;20126;-53
2022/10/09 08:38:02;;;;;;;11.25;5.22;;;11.00;68.60;;;;;;4798202;29;20054;-53
2022/10/09 08:40:50;;;;;;;11.73;5.32;;;11.10;68.70;;;;;;4803710;29;20505;-52
2022/10/09 08:43:30;;;;;;;6.55;5.00;;;11.20;69.40;;;;;;4802889;29;20054;-52
2022/10/09 08:46:02;;;;;;;7.93;4.80;;;11.30;68.90;;;;;;4809418;29;20066;-53
2022/10/09 08:48:39;;;;;;;8.77;4.57;;;11.30;68.70;;;;;;4801641;29;20054;-52
2022/10/09 08:51:17;;;;;;;6.70;4.40;;;11.30;68.40;;;;;;4791761;29;20380;-52
2022/10/09 08:53:53;;;;;;;4.78;3.95;;;11.50;68.90;;;;;;4806087;29;20046;-51
2022/10/09 08:56:21;;;;;;;6.80;4.70;;;11.60;68.70;;;;;;4797225;29;20053;-52
2022/10/09 08:58:48;;;;;;;8.70;4.28;;;11.60;68.50;;;;;;4802807;29;20045;-51
2022/10/09 09:01:20;;;;;;;7.53;4.38;;;11.70;68.60;;;;;;4809190;29;20488;-49
2022/10/09 09:04:12;;;;;;;6.13;4.25;;;11.80;68.70;;;;;;4803913;29;20107;-52
2022/10/09 09:06:46;;;;;;;7.30;3.80;;;11.90;68.80;;;;;;4802377;29;20109;-52
2022/10/09 09:09:28;;;;;;;4.40;3.55;;;12.00;68.20;;;;;;4803205;29;20058;-51
2022/10/09 09:12:10;;;;;;;4.40;3.38;;;12.10;68.00;;;;;;4801755;29;20043;-52
2022/10/09 09:14:49;;;;;;;4.73;4.00;;;12.20;68.70;;;;;;4798185;29;20067;-52
2022/10/09 09:17:41;;;;;;;7.15;3.85;;;12.20;68.30;;;;;;4801834;29;20051;-52
2022/10/09 09:20:22;;;;;;;7.18;3.85;;;12.30;68.80;;;;;;4817477;29;20973;-50
2022/10/09 09:22:50;;;;;;;7.60;4.00;;;12.40;68.10;;;;;;4806893;29;20137;-51
2022/10/09 09:25:21;;;;;;;6.85;4.35;;;12.50;67.30;;;;;;4806821;29;20122;-51
2022/10/09 09:27:48;;;;;;;4.30;3.78;;;12.60;67.40;;;;;;4804142;29;20420;-52
2022/10/09 09:30:29;;;;;;;6.70;4.43;;;12.60;67.10;;;;;;4802028;29;20058;-51
2022/10/09 09:32:58;;;;;;;5.22;4.00;;;12.70;67.20;;;;;;4802844;29;20134;-50
2022/10/09 09:35:34;;;;;;;6.45;4.15;;;12.80;67.00;;;;;;4805736;29;20047;-51
2022/10/09 09:38:01;;;;;;;6.20;3.50;;;12.80;66.70;;;;;;4805599;29;20111;-51
2022/10/09 09:40:33;;;;;;;8.30;4.25;;;12.90;66.50;;;;;;4803475;29;20134;-51
2022/10/09 09:43:15;;;;;;;11.05;4.30;;;13.00;66.70;;;;;;4802450;29;20115;-52
2022/10/09 09:45:43;;;;;;;6.78;4.40;;;13.10;66.80;;;;;;4809907;29;20042;-50
2022/10/09 09:48:24;;;;;;;4.55;4.07;;;13.10;66.30;;;;;;4820180;29;20074;-51
2022/10/09 09:50:52;;;;;;;6.43;4.05;;;13.20;66.40;;;;;;4801717;29;20129;-51
2022/10/09 09:53:43;;;;;;;5.07;4.07;;;13.30;66.00;;;;;;4808018;29;20039;-51
2022/10/09 09:56:10;;;;;;;4.72;4.00;;;13.40;66.30;;;;;;4805075;29;20058;-52
2022/10/09 09:58:46;;;;;;;4.93;4.25;;;13.40;66.00;;;;;;4810253;29;20075;-51
2022/10/09 10:01:22;;;;;;;4.95;3.05;;;13.50;66.20;;;;;;4804497;29;20130;-51
2022/10/09 10:03:52;;;;;;;4.57;3.53;;;13.60;66.30;;;;;;4804320;29;20050;-51
2022/10/09 10:06:28;;;;;;;6.30;3.63;;;13.60;65.60;;;;;;4812800;29;20047;-53
2022/10/09 10:09:02;;;;;;;6.35;4.47;;;13.70;65.60;;;;;;4862046;24;20512;31
2022/10/09 10:11:31;;;;;;;4.57;3.72;;;13.80;65.40;;;;;;4779905;29;20126;-46
2022/10/09 10:14:07;;;;;;;7.28;4.28;;;13.80;65.00;;;;;;4787099;29;20047;-49
2022/10/09 10:16:37;;;;;;;6.63;4.35;;;13.90;65.30;;;;;;4786861;29;20048;-48
2022/10/09 10:19:05;;;;;;;5.03;3.55;;;14.00;65.40;;;;;;4787387;29;20043;-47
2022/10/09 10:21:47;;;;;;;9.07;3.67;;;14.10;65.20;;;;;;4786796;29;20540;-50
2022/10/09 10:24:19;;;;;;;3.58;2.80;;;14.10;65.20;;;;;;4790981;29;20118;-45
2022/10/09 10:26:51;;;;;;;6.32;3.45;;;14.20;64.50;;;;;;4784672;30;20039;-47
2022/10/09 10:29:36;;;;;;;5.60;3.03;;;14.30;64.30;;;;;;4779986;30;20056;-46
2022/10/09 10:32:16;;;;;;;6.35;3.40;;;14.30;64.00;;;;;;4786452;30;20035;-48
2022/10/09 10:34:56;;;;;;;6.22;3.63;;;14.40;63.80;;;;;;4786340;29;20048;-45
2022/10/09 10:37:32;;;;;;;11.15;3.72;;;14.50;64.00;;;;;;4780470;29;20638;-46
2022/10/09 10:40:18;;;;;;;8.30;3.45;;;14.60;63.60;;;;;;4787342;29;20066;-47
2022/10/09 10:43:04;;;;;;;5.40;3.33;;;14.60;64.00;;;;;;4768311;30;20052;-46
2022/10/09 10:45:43;;;;;;;8.32;3.50;;;14.70;63.50;;;;;;4771467;30;20473;-47
2022/10/09 10:48:18;;;;;;;3.45;2.63;;;14.70;63.30;;;;;;4783968;29;20120;-45
2022/10/09 10:51:09;;;;;;;4.18;2.67;;;14.80;63.20;;;;;;4786321;29;20046;-48
2022/10/09 10:53:58;;;;;;;4.72;2.53;;;14.90;63.40;;;;;;4785895;30;20425;-46
2022/10/09 10:56:31;;;;;;;4.25;2.72;;;15.00;63.80;;;;;;4785612;29;20039;-47
2022/10/09 10:59:27;;;;;;;3.65;2.53;;;15.10;63.20;;;;;;4783643;30;20047;-46
2022/10/09 11:02:11;;;;;;;5.05;2.50;;;15.10;62.70;;;;;;4786215;29;20405;-46
2022/10/09 11:04:43;;;;;;;2.33;2.13;;;15.20;62.30;;;;;;4784141;30;20126;-46
2022/10/09 11:07:22;;;;;;;2.78;1.73;;;15.30;62.10;;;;;;4780402;30;20051;-49
2022/10/09 11:09:49;;;;;;;4.45;2.30;;;15.40;61.90;;;;;;4784411;30;20050;-46
2022/10/09 11:12:29;;;;;;;6.47;2.90;;;15.50;61.90;;;;;;4785544;30;20057;-47
2022/10/09 11:15:36;;;;;;;4.93;2.15;;;15.50;61.70;;;;;;4781171;29;20127;-45
2022/10/09 11:18:25;;;;;;;3.97;2.03;;;15.60;61.10;;;;;;4779671;29;20142;-46
2022/10/09 11:21:11;;;;;;;3.70;1.90;;;15.70;60.80;;;;;;4780384;30;20669;-45
2022/10/09 11:23:43;;;;;;;2.15;1.58;;;15.70;60.90;;;;;;4785745;30;20051;-47
2022/10/09 11:26:23;;;;;;;2.67;2.00;;;15.80;61.10;;;;;;4780273;30;20071;-45
2022/10/09 11:29:14;;;;;;;2.72;1.65;;;15.80;60.90;;;;;;4785406;29;20057;-50
2022/10/09 11:31:51;;;;;;;5.32;2.15;;;15.90;60.50;;;;;;4785294;30;20082;-50
2022/10/09 11:34:32;;;;;;;2.55;1.92;;;16.00;60.80;;;;;;4783643;29;20053;-49
2022/10/09 11:37:01;;;;;;;3.78;2.00;;;16.00;60.10;;;;;;4785483;30;20043;-49
2022/10/09 11:39:31;;;;;;;4.00;2.55;;;16.10;60.40;;;;;;4786087;29;20122;-47
2022/10/09 11:42:00;;;;;;;3.47;2.03;;;16.10;59.60;;;;;;4783792;29;20051;-50
2022/10/09 11:45:06;;;;;;;4.47;1.55;;;16.20;59.80;;;;;;4782218;29;20107;-47
2022/10/09 11:48:15;;;;;;;2.75;1.40;;;16.30;59.20;;;;;;4783646;30;20071;-51
2022/10/09 11:50:57;;;;;;;2.53;1.77;;;16.40;58.90;;;;;;4785677;30;20055;-50
2022/10/09 11:53:27;;;;;;;5.18;1.80;;;16.40;58.40;;;;;;4783233;29;20406;-46
2022/10/09 11:56:02;;;;;;;4.68;1.77;;;16.50;58.90;;;;;;4784577;29;20048;-49
2022/10/09 11:58:29;;;;;;;3.42;2.10;;;16.50;59.10;;;;;;4785393;30;20075;-50
2022/10/09 12:01:20;;;;;;;3.30;1.27;;;16.50;58.40;;;;;;4785525;29;20055;-49
2022/10/09 12:03:59;;;;;;;4.95;1.70;;;16.60;58.20;;;;;;4782809;29;20058;-46
2022/10/09 12:06:28;;;;;;;3.45;1.63;;;16.70;58.40;;;;;;4785194;29;20051;-48
2022/10/09 12:09:02;;;;;;;3.65;1.58;;;16.70;58.10;;;;;;4784213;30;20051;-48
2022/10/09 12:11:31;;;;;;;6.68;2.85;;;16.80;57.60;;;;;;4768543;30;20126;-50
2022/10/09 12:13:59;;;;;;;4.25;2.00;;;16.80;57.50;;;;;;4778949;29;20058;-47
2022/10/09 12:16:31;;;;;;;2.83;1.20;;;16.90;57.40;;;;;;4782908;29;20062;-51
2022/10/09 12:19:01;;;;;;;4.53;2.30;;;16.90;57.10;;;;;;4781049;29;20093;-51
2022/10/09 12:21:35;;;;;;;2.53;2.00;;;17.00;57.30;;;;;;4775678;29;20055;-48
2022/10/09 12:24:02;;;;;;;3.55;1.73;;;17.00;57.10;;;;;;4783510;30;20071;-46
2022/10/09 12:26:29;;;;;;;3.83;1.77;;;17.10;57.10;;;;;;4775148;30;20070;-52
2022/10/09 12:29:01;;;;;;;2.38;1.13;;;17.10;56.80;;;;;;4783624;30;20083;-46
2022/10/09 12:31:35;;;;;;;2.57;1.20;;;17.20;56.30;;;;;;4784653;29;20561;-50
2022/10/09 12:34:19;;;;;;;7.85;2.55;;;17.30;55.60;;;;;;4780632;29;20348;-51
2022/10/09 12:36:45;;;;;;;6.82;2.13;;;17.40;55.50;;;;;;4783995;29;20054;-50
2022/10/09 12:39:23;;;;;;;4.03;1.95;;;17.40;55.70;;;;;;4784495;30;20043;-51
2022/10/09 12:41:54;;;;;;;1.60;1.20;;;17.50;55.10;;;;;;4785041;30;20112;-48
2022/10/09 12:44:31;;;;;;;4.55;2.50;;;17.50;55.40;;;;;;4784945;29;20136;-48
2022/10/09 12:47:02;;;;;;;1.25;1.05;;;17.60;54.70;;;;;;4785192;30;20083;-48
2022/10/09 12:49:29;;;;;;;4.55;2.35;;;17.70;54.90;;;;;;4782779;29;20576;-46
2022/10/09 12:51:58;;;;;;;2.35;1.40;;;17.80;54.50;;;;;;4783838;30;20586;-47
2022/10/09 12:54:26;;;;;;;2.92;1.50;;;17.90;53.80;;;;;;4787270;29;20047;-50
2022/10/09 12:56:55;;;;;;;3.08;1.17;;;17.90;53.40;;;;;;4791913;29;20059;-46
2022/10/09 12:59:24;;;;;;;2.53;1.50;;;18.00;52.90;;;;;;4782572;30;20048;-47
2022/10/09 13:01:56;;;;;;;1.98;1.23;;;18.00;53.10;;;;;;4788631;30;20057;-48
2022/10/09 13:04:31;;;;;;;2.30;1.25;;;18.10;53.00;;;;;;4783401;30;20478;-48
2022/10/09 13:07:02;;;;;;;3.42;1.10;;;18.20;52.00;;;;;;4771042;30;20510;-51
2022/10/09 13:09:38;;;;;;;1.45;1.00;;;18.20;52.20;;;;;;4781131;30;20059;-50
2022/10/09 13:12:26;;;;;;;1.63;1.38;;;18.30;51.30;;;;;;4786355;29;20050;-45
2022/10/09 13:14:58;;;;;;;1.75;0.95;;;18.30;51.50;;;;;;4771058;30;20132;-49
2022/10/09 13:17:25;;;;;;;;;;;18.50;51.60;;;;;;4781893;29;20398;-47
2022/10/09 13:19:54;;;;;;;1.67;1.00;;;18.60;52.40;;;;;;4783744;29;19942;-49